Cocodrie, Louisiana
Current Conditions -  °F | °C
As of 11:35 PM on Tuesday 25 Nov 2014 (Local Time) from KHUM Reporting Station
Clear Clear  
Wind Chill: 38°   Ceiling: Unl
Heat Index: 42°   Visibility: 7mi
Dew Point: 35°   Wind: 6mph
Humidity: 76%   Direction: 320°NW
Pressure: 30.24"   Gusts: NA
Location:  29.4719°N, 90.6177°W
Report Text: KHUM 260535Z AUTO 32005KT 7SM CLR 05/02 A3024 RMK AO2 T00540015
Loading
Personal Weather Stations






























Interactive Weather Map New forecast layout! Learn more

10-Day Weather Forecast

Advertisements
Track Severe Weather on mobile